»·PEaware :: N172QT KSAN-KAVX

N172QT :: KSAN-KAVX

FLIGHT INFORMATION

Flight Status: Arrived
Operator: Privately registered:
United States
More flights under this callsign
Pilot: Kevin G. (10950)
Aircraft: PILATUS PC-12 EAGLE
(PC12)
More flights by this aircraft type
Origin: KSAN San Diego Intl-Lindbergh
United States
Destination: KAVX Catalina
United States
More flights between these airports :: More routes between these airports
Route: +MZB293R V27 SXC
File this flight plan on PilotEdge
Remarks: TEC route SANN2
Altitude:
(Current/Filed)
8,000ft
Speed:
(Current/Filed)
200kts
Departed: 06-May-18 05:10 PM
Arrived: 06-May-18 05:43 PM
Distance/Time
Traveled:
74nm/0:33
Distance/Time
To Go:
Arrived

Flight Plot

Page will automatically refresh every two minutes.

Flight plan parsing failed; only flown route is shown


Map Options




Map Legend


Flown Route
Filed Route
Departure Airport
Arrival Airport
Navaid (VOR, NDB)
Fix

Horizontal Profiles

Position Reports

Time Latitude Longitude Heading Altitude Ground
Speed
06-May-18 16:47 32.732420 -117.176641 194 22ft 0kts
06-May-18 16:48 32.732420 -117.176641 194 22ft 0kts
06-May-18 16:49 32.732420 -117.176641 194 22ft 0kts
06-May-18 16:50 32.732420 -117.176641 194 22ft 0kts
06-May-18 16:51 32.732420 -117.176641 194 22ft 0kts
06-May-18 16:52 32.732420 -117.176641 194 22ft 0kts
06-May-18 16:53 32.732420 -117.176641 194 22ft 0kts
06-May-18 16:54 32.732420 -117.176641 194 22ft 0kts
06-May-18 16:55 32.732420 -117.176641 194 22ft 0kts
06-May-18 16:56 32.732420 -117.176641 194 22ft 0kts
06-May-18 16:58 32.732420 -117.176641 194 22ft 0kts
06-May-18 16:59 32.732420 -117.176641 194 22ft 0kts
06-May-18 17:00 32.732420 -117.176641 194 22ft 0kts
06-May-18 17:01 32.732420 -117.176641 194 22ft 0kts
06-May-18 17:02 32.732420 -117.176641 194 22ft 0kts
06-May-18 17:03 32.732420 -117.176641 194 22ft 0kts
06-May-18 17:04 32.732420 -117.176641 194 22ft 0kts
06-May-18 17:05 32.732420 -117.176641 194 22ft 0kts
06-May-18 17:06 32.732420 -117.176641 194 22ft 0kts
06-May-18 17:07 32.731290 -117.176295 109 20ft 5kts
06-May-18 17:08 32.730898 -117.175384 168 22ft 0kts
06-May-18 17:09 32.730595 -117.175275 165 21ft 8kts
06-May-18 17:10 32.733199 -117.188205 285 58ft 107kts
06-May-18 17:11 32.746587 -117.221431 305 1188ft 114kts
06-May-18 17:12 32.769013 -117.257339 305 2533ft 154kts
06-May-18 17:13 32.797299 -117.299742 308 3813ft 168kts
06-May-18 17:14 32.826668 -117.343378 307 5206ft 170kts
06-May-18 17:15 32.856137 -117.387348 307 6598ft 171kts
06-May-18 17:16 32.885033 -117.430371 307 7906ft 174kts
06-May-18 17:17 32.921665 -117.470038 330 7966ft 216kts
06-May-18 17:18 32.970203 -117.511988 308 7961ft 220kts
06-May-18 17:19 33.007845 -117.569380 306 7960ft 221kts
06-May-18 17:20 33.045819 -117.627384 306 7974ft 221kts
06-May-18 17:21 33.083625 -117.684975 305 7989ft 222kts
06-May-18 17:22 33.121199 -117.742586 305 7988ft 223kts
06-May-18 17:23 33.159181 -117.801016 305 7994ft 222kts
06-May-18 17:24 33.190727 -117.862413 289 7999ft 212kts
06-May-18 17:25 33.212358 -117.927143 289 7837ft 211kts
06-May-18 17:26 33.233887 -117.991512 289 6639ft 214kts
06-May-18 17:27 33.255941 -118.057681 289 5381ft 213kts
06-May-18 17:28 33.277592 -118.123073 290 4091ft 210kts
06-May-18 17:29 33.296945 -118.182337 289 4001ft 180kts
06-May-18 17:30 33.314572 -118.235998 288 4000ft 168kts
06-May-18 17:31 33.331714 -118.288326 289 4005ft 177kts
06-May-18 17:32 33.350654 -118.345533 289 4006ft 190kts
06-May-18 17:33 33.373268 -118.403200 314 4007ft 197kts
06-May-18 17:34 33.425859 -118.412431 4 4004ft 195kts
06-May-18 17:35 33.477288 -118.404879 4 3967ft 182kts
06-May-18 17:36 33.524724 -118.416472 318 3294ft 177kts
06-May-18 17:37 33.564154 -118.439892 21 3391ft 169kts
06-May-18 17:38 33.559048 -118.397679 161 3382ft 161kts
06-May-18 17:39 33.515472 -118.399442 190 3082ft 160kts
06-May-18 17:40 33.473591 -118.405396 190 2901ft 137kts
06-May-18 17:41 33.441063 -118.399037 162 2235ft 111kts
06-May-18 17:42 33.414771 -118.396405 238 2106ft 96kts
06-May-18 17:43 33.404247 -118.417033 235 1554ft 23kts
06-May-18 17:44 33.402351 -118.419872 150 1553ft 0kts
06-May-18 17:45 33.403143 -118.418207 54 1559ft 12kts
06-May-18 17:46 33.403417 -118.416071 78 1552ft 7kts
06-May-18 17:47 33.403592 -118.415653 135 1549ft 0kts
06-May-18 17:48 33.403592 -118.415653 135 1549ft 0kts

Navigation Log

Ident Type
Flight plan parsing failed, navigation log unavailable